createdAt,value
2022-09-18T00:00:12.156Z,93.07
2022-09-18T00:01:12.129Z,92.87
2022-09-18T00:02:12.296Z,92.87
2022-09-18T00:03:12.194Z,92.67
2022-09-18T00:04:12.069Z,93.28
2022-09-18T00:05:12.050Z,93.64
2022-09-18T00:06:12.029Z,93.48
2022-09-18T00:07:12.019Z,93.28
2022-09-18T00:08:11.987Z,93.28
2022-09-18T00:09:11.967Z,93.44
2022-09-18T00:10:11.943Z,92.72
2022-09-18T00:11:11.921Z,92.67
2022-09-18T00:12:11.928Z,92.77
2022-09-18T00:13:11.875Z,93.48
2022-09-18T00:14:11.859Z,93.48
2022-09-18T00:15:11.860Z,93.18
2022-09-18T00:16:11.834Z,92.67
2022-09-18T00:17:11.800Z,92.77
2022-09-18T00:18:11.890Z,92.87
2022-09-18T00:19:11.757Z,92.87
2022-09-18T00:20:11.742Z,93.38
2022-09-18T00:21:11.734Z,93.07
2022-09-18T00:22:11.715Z,92.77
2022-09-18T00:23:11.669Z,93.18
2022-09-18T00:24:11.650Z,93.18
2022-09-18T00:25:11.648Z,93.38
2022-09-18T00:26:11.609Z,93.69
2022-09-18T00:27:11.591Z,94.30
2022-09-18T00:28:11.562Z,94.50
2022-09-18T00:29:11.548Z,93.69
2022-09-18T00:30:11.542Z,93.89
2022-09-18T00:31:11.555Z,94.71
2022-09-18T00:32:11.483Z,94.71
2022-09-18T00:33:11.461Z,93.99
2022-09-18T00:34:11.537Z,94.50
2022-09-18T00:35:11.442Z,94.09
2022-09-18T00:36:11.397Z,94.81
2022-09-18T00:37:11.399Z,94.81
2022-09-18T00:38:11.358Z,94.30
2022-09-18T00:39:11.335Z,94.40
2022-09-18T00:40:11.392Z,94.20
2022-09-18T00:41:11.298Z,94.20
2022-09-18T00:42:11.304Z,94.30
2022-09-18T00:43:11.256Z,94.09
2022-09-18T00:44:11.238Z,94.30
2022-09-18T00:45:11.215Z,94.09
2022-09-18T00:46:11.218Z,94.60
2022-09-18T00:47:11.175Z,93.38
2022-09-18T00:48:11.176Z,94.40
2022-09-18T00:49:11.135Z,94.09
2022-09-18T00:50:11.203Z,94.40
2022-09-18T00:51:11.112Z,93.79
2022-09-18T00:52:11.064Z,94.20
2022-09-18T00:53:11.051Z,94.30
2022-09-18T00:54:11.032Z,94.09
2022-09-18T00:55:11.021Z,94.20
2022-09-18T00:56:10.981Z,94.20
2022-09-18T00:57:10.978Z,94.09
2022-09-18T00:58:10.943Z,94.30
2022-09-18T00:59:10.937Z,94.09
2022-09-18T01:00:10.901Z,94.30
2022-09-18T01:01:10.942Z,94.20
2022-09-18T01:02:10.940Z,94.40
2022-09-18T01:03:10.882Z,94.40
2022-09-18T01:04:10.814Z,93.69
2022-09-18T01:05:10.804Z,94.09
2022-09-18T01:06:10.867Z,94.30
2022-09-18T01:07:10.753Z,93.59
2022-09-18T01:08:10.730Z,93.69
2022-09-18T01:09:10.727Z,94.71
2022-09-18T01:10:10.692Z,94.71
2022-09-18T01:11:10.677Z,93.59
2022-09-18T01:12:10.654Z,93.48
2022-09-18T01:13:10.626Z,93.59
2022-09-18T01:14:10.622Z,93.59
2022-09-18T01:15:10.592Z,93.38
2022-09-18T01:16:10.606Z,93.48
2022-09-18T01:17:10.541Z,93.69
2022-09-18T01:18:10.552Z,92.67
2022-09-18T01:19:10.498Z,93.18
2022-09-18T01:20:10.500Z,92.77
2022-09-18T01:21:10.467Z,92.67
2022-09-18T01:22:10.527Z,92.67
2022-09-18T01:23:10.414Z,92.77
2022-09-18T01:24:10.393Z,92.77
2022-09-18T01:25:10.394Z,92.97
2022-09-18T01:26:10.358Z,92.77
2022-09-18T01:27:10.335Z,92.97
2022-09-18T01:28:10.314Z,92.67
2022-09-18T01:29:10.293Z,92.67
2022-09-18T01:30:10.291Z,93.07
2022-09-18T01:31:10.294Z,92.67
2022-09-18T01:32:10.237Z,93.38
2022-09-18T01:33:10.219Z,92.97
2022-09-18T01:34:10.183Z,93.07
2022-09-18T01:35:36.781Z,92.87
2022-09-18T01:36:10.142Z,92.36
2022-09-18T01:37:10.126Z,93.18
2022-09-18T01:38:10.216Z,92.97
2022-09-18T01:39:10.084Z,92.77
2022-09-18T01:40:10.103Z,92.57
2022-09-18T01:41:10.068Z,92.67
2022-09-18T01:42:10.019Z,93.07
2022-09-18T01:43:09.999Z,92.97
2022-09-18T01:44:09.985Z,92.77
2022-09-18T01:45:09.958Z,92.57
2022-09-18T01:46:09.964Z,93.18
2022-09-18T01:47:09.936Z,92.97
2022-09-18T01:48:09.895Z,92.57
2022-09-18T01:49:09.893Z,92.46
2022-09-18T01:50:09.854Z,92.46
2022-09-18T01:51:09.832Z,92.57
2022-09-18T01:52:09.806Z,92.46
2022-09-18T01:53:09.811Z,92.87
2022-09-18T01:54:09.864Z,93.07
2022-09-18T01:55:09.745Z,92.87
2022-09-18T01:56:09.745Z,93.38
2022-09-18T01:57:09.705Z,93.28
2022-09-18T01:58:09.707Z,93.69
2022-09-18T01:59:09.665Z,93.59
2022-09-18T02:00:09.644Z,94.09
2022-09-18T02:01:09.733Z,93.69
2022-09-18T02:02:09.704Z,94.60
2022-09-18T02:03:09.608Z,94.60
2022-09-18T02:04:09.560Z,94.30
2022-09-18T02:05:09.541Z,94.20
2022-09-18T02:06:09.523Z,93.69
2022-09-18T02:07:09.503Z,94.09
2022-09-18T02:08:09.477Z,94.40
2022-09-18T02:09:09.480Z,94.20
2022-09-18T02:10:09.543Z,94.60
2022-09-18T02:11:09.414Z,94.71
2022-09-18T02:12:09.394Z,94.91
2022-09-18T02:13:09.373Z,94.81
2022-09-18T02:14:09.354Z,95.32
2022-09-18T02:15:09.350Z,95.32
2022-09-18T02:16:09.357Z,95.21
2022-09-18T02:17:09.311Z,96.08
2022-09-18T02:18:09.267Z,95.83
2022-09-18T02:19:09.246Z,96.14
2022-09-18T02:20:09.251Z,96.59
2022-09-18T02:21:09.208Z,96.64
2022-09-18T02:22:09.185Z,96.48
2022-09-18T02:23:09.169Z,96.44
2022-09-18T02:24:09.170Z,96.79
2022-09-18T02:25:09.119Z,97.00
2022-09-18T02:26:09.195Z,96.79
2022-09-18T02:27:09.078Z,96.89
2022-09-18T02:28:09.068Z,97.40
2022-09-18T02:29:09.036Z,97.71
2022-09-18T02:30:09.034Z,97.40
2022-09-18T02:31:09.046Z,97.61
2022-09-18T02:32:08.979Z,97.00
2022-09-18T02:33:08.953Z,97.50
2022-09-18T02:34:08.934Z,97.71
2022-09-18T02:35:08.929Z,97.61
2022-09-18T02:36:08.896Z,97.71
2022-09-18T02:37:08.866Z,97.50
2022-09-18T02:38:08.852Z,97.81
2022-09-18T02:39:08.847Z,97.81
2022-09-18T02:40:08.838Z,97.81
2022-09-18T02:41:08.810Z,97.61
2022-09-18T02:42:08.866Z,97.20
2022-09-18T02:43:08.752Z,97.71
2022-09-18T02:44:08.725Z,97.30
2022-09-18T02:45:08.720Z,97.97
2022-09-18T02:46:08.779Z,97.61
2022-09-18T02:47:08.664Z,97.40
2022-09-18T02:48:08.642Z,98.73
2022-09-18T02:49:08.615Z,98.63
2022-09-18T02:50:08.611Z,98.43
2022-09-18T02:51:08.572Z,98.43
2022-09-18T02:52:08.551Z,98.22
2022-09-18T02:53:08.550Z,98.32
2022-09-18T02:54:08.542Z,98.02
2022-09-18T02:55:08.509Z,98.11
2022-09-18T02:56:08.478Z,98.32
2022-09-18T02:57:08.449Z,98.63
2022-09-18T02:58:08.524Z,98.22
2022-09-18T02:59:08.407Z,98.32
2022-09-18T03:00:08.403Z,98.63
2022-09-18T03:01:08.363Z,98.73
2022-09-18T03:02:08.440Z,98.52
2022-09-18T03:03:08.328Z,98.73
2022-09-18T03:04:08.305Z,98.73
2022-09-18T03:05:08.302Z,98.11
2022-09-18T03:06:08.262Z,98.11
2022-09-18T03:07:08.244Z,98.73
2022-09-18T03:08:08.220Z,98.63
2022-09-18T03:09:08.198Z,98.02
2022-09-18T03:10:08.188Z,98.43
2022-09-18T03:11:08.155Z,97.91
2022-09-18T03:12:08.141Z,98.63
2022-09-18T03:13:08.114Z,98.83
2022-09-18T03:14:08.197Z,98.43
2022-09-18T03:15:08.073Z,98.43
2022-09-18T03:16:08.078Z,98.11
2022-09-18T03:17:08.031Z,98.63
2022-09-18T03:18:08.006Z,98.16
2022-09-18T03:19:08.008Z,98.63
2022-09-18T03:20:07.961Z,98.43
2022-09-18T03:21:07.943Z,98.73
2022-09-18T03:22:07.918Z,98.52
2022-09-18T03:23:07.915Z,98.22
2022-09-18T03:24:07.883Z,98.93
2022-09-18T03:25:07.863Z,98.32
2022-09-18T03:26:07.841Z,98.02
2022-09-18T03:27:07.835Z,98.32
2022-09-18T03:28:07.798Z,98.43
2022-09-18T03:29:07.772Z,98.52
2022-09-18T03:30:07.848Z,98.32
2022-09-18T03:31:07.763Z,98.63
2022-09-18T03:32:07.739Z,98.11
2022-09-18T03:33:07.690Z,98.36
2022-09-18T03:34:07.672Z,98.43
2022-09-18T03:35:07.654Z,98.68
2022-09-18T03:36:07.630Z,98.77
2022-09-18T03:37:07.605Z,98.52
2022-09-18T03:38:07.608Z,98.93
2022-09-18T03:39:07.582Z,98.52
2022-09-18T03:40:07.655Z,98.63
2022-09-18T03:41:07.522Z,98.63
2022-09-18T03:42:07.506Z,98.93
2022-09-18T03:43:07.478Z,98.32
2022-09-18T03:44:07.478Z,98.63
2022-09-18T03:45:07.457Z,98.73
2022-09-18T03:46:07.567Z,98.83
2022-09-18T03:47:07.393Z,98.98
2022-09-18T03:48:07.372Z,98.68
2022-09-18T03:49:07.375Z,98.93
2022-09-18T03:50:07.334Z,98.98
2022-09-18T03:51:07.307Z,99.08
2022-09-18T03:52:07.302Z,98.93
2022-09-18T03:53:07.270Z,98.88
2022-09-18T03:54:07.250Z,99.08
2022-09-18T03:55:07.244Z,99.29
2022-09-18T03:56:07.204Z,99.29
2022-09-18T03:57:07.187Z,99.59
2022-09-18T03:58:07.163Z,99.49
2022-09-18T03:59:07.154Z,99.90
2022-09-18T04:00:07.138Z,99.29
2022-09-18T04:01:07.126Z,99.99
2022-09-18T04:02:07.263Z,99.99
2022-09-18T04:03:07.188Z,99.69
2022-09-18T04:04:08.961Z,99.90
2022-09-18T04:05:07.016Z,99.99
2022-09-18T04:06:07.027Z,99.99
2022-09-18T04:07:06.990Z,99.99
2022-09-18T04:08:06.967Z,99.99
2022-09-18T04:09:06.934Z,99.99
2022-09-18T04:10:06.911Z,99.99
2022-09-18T04:11:06.904Z,99.99
2022-09-18T04:12:06.866Z,99.99
2022-09-18T04:13:06.848Z,99.99
2022-09-18T04:14:06.824Z,99.99
2022-09-18T04:15:06.807Z,99.69
2022-09-18T04:16:06.843Z,99.99
2022-09-18T04:17:06.761Z,99.65
2022-09-18T04:18:06.855Z,99.99
2022-09-18T04:19:06.723Z,99.99
2022-09-18T04:20:06.692Z,99.99
2022-09-18T04:21:06.680Z,99.99
2022-09-18T04:22:06.653Z,99.99
2022-09-18T04:23:06.655Z,99.99
2022-09-18T04:24:06.615Z,99.99
2022-09-18T04:25:06.593Z,99.99
2022-09-18T04:26:06.574Z,99.99
2022-09-18T04:27:06.547Z,99.99
2022-09-18T04:28:06.548Z,99.99
2022-09-18T04:29:06.529Z,99.99
2022-09-18T04:30:06.493Z,99.99
2022-09-18T04:31:06.486Z,99.99
2022-09-18T04:32:06.446Z,99.99
2022-09-18T04:33:06.440Z,99.99
2022-09-18T04:34:06.497Z,99.99
2022-09-18T04:35:06.379Z,99.99
2022-09-18T04:36:06.388Z,99.99
2022-09-18T04:37:10.126Z,99.99
2022-09-18T04:38:06.345Z,99.99
2022-09-18T04:39:06.317Z,99.99
2022-09-18T04:40:06.313Z,99.99
2022-09-18T04:41:06.258Z,99.99
2022-09-18T04:42:06.237Z,99.99
2022-09-18T04:43:06.210Z,99.99
2022-09-18T04:44:06.212Z,99.99
2022-09-18T04:45:06.192Z,99.99
2022-09-18T04:46:06.208Z,99.99
2022-09-18T04:47:06.129Z,99.99
2022-09-18T04:48:06.113Z,99.99
2022-09-18T04:49:06.104Z,99.99
2022-09-18T04:50:06.176Z,99.99
2022-09-18T04:51:06.040Z,99.99
2022-09-18T04:52:06.041Z,99.99
2022-09-18T04:53:06.004Z,99.99
2022-09-18T04:54:05.983Z,99.99
2022-09-18T04:55:05.978Z,99.99
2022-09-18T04:56:05.962Z,99.99
2022-09-18T04:57:05.936Z,99.99
2022-09-18T04:58:05.899Z,99.99
2022-09-18T04:59:05.877Z,99.99
2022-09-18T05:00:05.855Z,99.99
2022-09-18T05:01:06.002Z,99.99
2022-09-18T05:02:05.903Z,99.99
2022-09-18T05:03:05.799Z,99.99
2022-09-18T05:04:05.776Z,99.99
2022-09-18T05:05:05.773Z,99.99
2022-09-18T05:06:05.846Z,99.99
2022-09-18T05:07:05.744Z,99.99
2022-09-18T05:08:05.687Z,99.99
2022-09-18T05:09:05.677Z,99.99
2022-09-18T05:10:05.648Z,99.99
2022-09-18T05:11:05.625Z,99.99
2022-09-18T05:12:05.602Z,99.99
2022-09-18T05:13:05.602Z,99.99
2022-09-18T05:14:05.560Z,99.99
2022-09-18T05:15:05.542Z,99.99
2022-09-18T05:16:05.541Z,99.99
2022-09-18T05:17:05.522Z,99.99
2022-09-18T05:18:10.554Z,99.99
2022-09-18T05:19:05.471Z,99.99
2022-09-18T05:20:05.435Z,99.99
2022-09-18T05:21:05.417Z,99.99
2022-09-18T05:22:05.510Z,99.99
2022-09-18T05:23:05.374Z,99.99
2022-09-18T05:24:05.355Z,99.99
2022-09-18T05:25:05.332Z,99.99
2022-09-18T05:26:05.314Z,99.99
2022-09-18T05:27:05.305Z,99.99
2022-09-18T05:28:05.269Z,99.99
2022-09-18T05:29:05.259Z,99.99
2022-09-18T05:30:05.230Z,99.99
2022-09-18T05:31:05.219Z,99.99
2022-09-18T05:32:05.187Z,99.99
2022-09-18T05:33:05.176Z,99.99
2022-09-18T05:34:05.160Z,99.99
2022-09-18T05:35:05.127Z,99.99
2022-09-18T05:36:05.113Z,99.99
2022-09-18T05:37:05.075Z,99.99
2022-09-18T05:38:05.167Z,99.99
2022-09-18T05:39:05.055Z,99.99
2022-09-18T05:40:05.051Z,99.99
2022-09-18T05:41:04.991Z,99.99
2022-09-18T05:42:04.996Z,99.99
2022-09-18T05:43:04.957Z,99.99
2022-09-18T05:44:04.936Z,99.60
2022-09-18T05:45:04.926Z,99.99
2022-09-18T05:46:04.914Z,99.99
2022-09-18T05:47:04.872Z,99.91
2022-09-18T05:48:04.846Z,99.99
2022-09-18T05:49:04.829Z,99.99
2022-09-18T05:50:04.825Z,99.99
2022-09-18T05:51:04.805Z,99.99
2022-09-18T05:52:04.772Z,99.99
2022-09-18T05:53:04.741Z,99.99
2022-09-18T05:54:04.822Z,99.99
2022-09-18T05:55:04.709Z,99.99
2022-09-18T05:56:04.701Z,99.99
2022-09-18T05:57:04.690Z,99.99
2022-09-18T05:58:04.637Z,99.99
2022-09-18T05:59:04.640Z,99.99
2022-09-18T06:00:04.620Z,99.99
2022-09-18T06:01:04.621Z,99.99
2022-09-18T06:03:04.622Z,99.99
2022-09-18T06:04:04.527Z,99.99
2022-09-18T06:05:04.492Z,99.99
2022-09-18T06:06:04.479Z,99.99
2022-09-18T06:07:04.450Z,99.99
2022-09-18T06:08:04.436Z,99.99
2022-09-18T06:09:04.429Z,99.80
2022-09-18T06:10:04.483Z,99.99
2022-09-18T06:11:04.370Z,99.99
2022-09-18T06:12:04.363Z,99.99
2022-09-18T06:13:04.330Z,99.99
2022-09-18T06:14:04.306Z,99.99
2022-09-18T06:15:04.310Z,99.99
2022-09-18T06:16:05.153Z,99.99
2022-09-18T06:17:04.264Z,99.99
2022-09-18T06:18:08.991Z,99.99
2022-09-18T06:19:04.203Z,99.60
2022-09-18T06:20:06.037Z,99.80
2022-09-18T06:21:25.167Z,99.60
2022-09-18T06:22:04.167Z,99.80
2022-09-18T06:23:04.132Z,99.40
2022-09-18T06:24:04.139Z,99.70
2022-09-18T06:25:04.087Z,99.70
2022-09-18T06:26:04.157Z,99.50
2022-09-18T06:27:04.058Z,99.70
2022-09-18T06:28:04.039Z,99.40
2022-09-18T06:29:04.002Z,99.70
2022-09-18T06:30:03.979Z,99.50
2022-09-18T06:31:05.060Z,99.70
2022-09-18T06:32:04.538Z,99.50
2022-09-18T06:33:04.494Z,99.35
2022-09-18T06:34:04.578Z,99.29
2022-09-18T06:35:13.494Z,98.89
2022-09-18T06:36:11.499Z,98.58
2022-09-18T06:37:03.823Z,98.79
2022-09-18T06:38:03.826Z,98.58
2022-09-18T06:39:03.837Z,98.89
2022-09-18T06:40:03.837Z,98.94
2022-09-18T06:41:03.746Z,99.40
2022-09-18T06:42:03.816Z,98.68
2022-09-18T06:43:03.724Z,98.79
2022-09-18T06:44:03.679Z,98.99
2022-09-18T06:45:03.660Z,98.89
2022-09-18T06:46:03.637Z,99.09
2022-09-18T06:47:03.680Z,98.58
2022-09-18T06:48:03.598Z,98.79
2022-09-18T06:49:03.594Z,98.89
2022-09-18T06:50:03.552Z,98.89
2022-09-18T06:51:03.529Z,98.94
2022-09-18T06:52:03.511Z,98.58
2022-09-18T06:53:03.491Z,98.89
2022-09-18T06:54:03.566Z,98.58
2022-09-18T06:55:03.464Z,98.54
2022-09-18T06:56:03.457Z,98.27
2022-09-18T06:57:03.409Z,98.54
2022-09-18T06:58:03.480Z,98.54
2022-09-18T06:59:03.361Z,98.64
2022-09-18T07:00:05.004Z,98.54
2022-09-18T07:01:03.375Z,97.82
2022-09-18T07:02:03.376Z,98.64
2022-09-18T07:03:03.286Z,98.64
2022-09-18T07:04:03.264Z,98.43
2022-09-18T07:05:03.261Z,98.23
2022-09-18T07:06:03.243Z,98.13
2022-09-18T07:07:03.198Z,98.54
2022-09-18T07:08:03.182Z,97.11
2022-09-18T07:09:03.356Z,97.41
2022-09-18T07:10:08.345Z,98.23
2022-09-18T07:11:03.194Z,98.54
2022-09-18T07:12:03.135Z,98.49
2022-09-18T07:13:03.075Z,98.18
2022-09-18T07:14:03.146Z,97.27
2022-09-18T07:15:03.031Z,97.00
2022-09-18T07:16:03.094Z,97.27
2022-09-18T07:17:02.989Z,97.37
2022-09-18T07:18:02.987Z,96.86
2022-09-18T07:19:02.950Z,96.55
2022-09-18T07:20:02.927Z,96.91
2022-09-18T07:21:02.903Z,96.76
2022-09-18T07:22:02.960Z,97.37
2022-09-18T07:23:02.864Z,97.27
2022-09-18T07:24:03.050Z,95.94
2022-09-18T07:25:02.835Z,96.35
2022-09-18T07:26:02.803Z,96.45
2022-09-18T07:27:02.776Z,96.35
2022-09-18T07:28:02.787Z,96.20
2022-09-18T07:29:05.825Z,96.04
2022-09-18T07:30:02.820Z,96.25
2022-09-18T07:31:02.750Z,96.04
2022-09-18T07:32:02.680Z,95.69
2022-09-18T07:33:02.670Z,95.90
2022-09-18T07:34:02.652Z,96.20
2022-09-18T07:35:02.631Z,96.20
2022-09-18T07:36:02.594Z,96.30
2022-09-18T07:37:02.573Z,95.95
2022-09-18T07:38:02.558Z,95.95
2022-09-18T07:39:02.587Z,96.06
2022-09-18T07:40:02.541Z,96.15
2022-09-18T07:41:02.497Z,94.93
2022-09-18T07:42:06.868Z,95.85
2022-09-18T07:43:02.452Z,94.43
2022-09-18T07:44:02.452Z,94.73
2022-09-18T07:45:02.405Z,93.82
2022-09-18T07:46:02.498Z,93.82
2022-09-18T07:47:02.437Z,94.73
2022-09-18T07:48:02.350Z,93.31
2022-09-18T07:49:02.327Z,93.98
2022-09-18T07:50:02.329Z,93.16
2022-09-18T07:51:02.310Z,92.76
2022-09-18T07:52:02.274Z,93.67
2022-09-18T07:53:02.244Z,93.67
2022-09-18T07:54:02.294Z,92.55
2022-09-18T07:55:02.232Z,92.25
2022-09-18T07:56:02.180Z,92.65
2022-09-18T07:57:02.165Z,92.35
2022-09-18T07:58:02.142Z,92.65
2022-09-18T07:59:02.127Z,93.16
2022-09-18T08:00:02.106Z,92.65
2022-09-18T08:01:02.113Z,92.55
2022-09-18T08:02:02.348Z,92.25
2022-09-18T08:03:02.091Z,92.76
2022-09-18T08:04:02.106Z,92.76
2022-09-18T08:05:02.002Z,92.25
2022-09-18T08:06:01.980Z,92.09
2022-09-18T08:07:01.974Z,93.01
2022-09-18T08:08:01.959Z,92.90
2022-09-18T08:09:01.920Z,92.76
2022-09-18T08:10:01.897Z,92.55
2022-09-18T08:11:01.877Z,92.80
2022-09-18T08:12:01.859Z,92.76
2022-09-18T08:13:01.854Z,92.35
2022-09-18T08:14:01.815Z,92.45
2022-09-18T08:15:01.814Z,93.26
2022-09-18T08:16:01.830Z,92.96
2022-09-18T08:17:01.776Z,93.12
2022-09-18T08:18:01.830Z,92.45
2022-09-18T08:19:01.739Z,92.76
2022-09-18T08:20:01.691Z,92.41
2022-09-18T08:21:01.675Z,92.30
2022-09-18T08:22:01.650Z,92.45
2022-09-18T08:23:01.653Z,92.91
2022-09-18T08:24:01.712Z,92.76
2022-09-18T08:25:01.616Z,92.76
2022-09-18T08:26:01.582Z,92.25
2022-09-18T08:27:01.569Z,92.35
2022-09-18T08:28:01.537Z,92.65
2022-09-18T08:29:01.519Z,92.35
2022-09-18T08:30:01.490Z,92.91
2022-09-18T08:31:01.514Z,92.41
2022-09-18T08:32:03.530Z,92.51
2022-09-18T08:33:01.449Z,92.82
2022-09-18T08:34:01.509Z,92.91
2022-09-18T08:35:01.397Z,92.71
2022-09-18T08:36:01.388Z,92.76
2022-09-18T08:37:01.369Z,92.45
2022-09-18T08:38:01.329Z,93.26
2022-09-18T08:39:01.343Z,93.47
2022-09-18T08:40:01.366Z,93.87
2022-09-18T08:41:01.268Z,93.37
2022-09-18T08:42:01.268Z,93.63
2022-09-18T08:43:01.228Z,93.26
2022-09-18T08:44:01.215Z,92.41
2022-09-18T08:45:01.185Z,93.02
2022-09-18T08:46:01.167Z,94.13
2022-09-18T08:47:01.260Z,94.13
2022-09-18T08:48:01.130Z,93.99
2022-09-18T08:49:01.107Z,93.93
2022-09-18T08:50:01.187Z,93.99
2022-09-18T08:51:01.065Z,93.89
2022-09-18T08:52:01.052Z,93.83
2022-09-18T08:53:01.059Z,93.73
2022-09-18T08:54:01.061Z,93.93
2022-09-18T08:55:00.984Z,93.83
2022-09-18T08:56:00.973Z,93.98
2022-09-18T08:57:00.954Z,94.59
2022-09-18T08:58:00.937Z,94.48
2022-09-18T08:59:00.908Z,95.09
2022-09-18T09:00:00.885Z,95.81
2022-09-18T09:01:00.998Z,95.00
2022-09-18T09:02:00.899Z,95.61
2022-09-18T09:03:00.819Z,95.65
2022-09-18T09:04:00.821Z,95.24
2022-09-18T09:05:00.796Z,95.95
2022-09-18T09:06:00.852Z,94.48
2022-09-18T09:07:00.763Z,95.00
2022-09-18T09:08:00.723Z,94.89
2022-09-18T09:09:00.776Z,94.48
2022-09-18T09:10:00.701Z,94.48
2022-09-18T09:11:00.670Z,95.00
2022-09-18T09:12:00.651Z,94.44
2022-09-18T09:13:00.622Z,94.38
2022-09-18T09:14:00.604Z,93.87
2022-09-18T09:15:00.609Z,94.59
2022-09-18T09:16:00.618Z,94.48
2022-09-18T09:17:00.542Z,94.38
2022-09-18T09:18:00.549Z,94.48
2022-09-18T09:19:00.500Z,94.48
2022-09-18T09:20:00.500Z,94.79
2022-09-18T09:21:00.489Z,96.07
2022-09-18T09:22:00.533Z,95.09
2022-09-18T09:23:00.417Z,96.01
2022-09-18T09:24:00.445Z,95.86
2022-09-18T09:25:00.398Z,95.61
2022-09-18T09:26:00.372Z,96.11
2022-09-18T09:27:00.343Z,96.22
2022-09-18T09:28:00.332Z,96.62
2022-09-18T09:29:00.293Z,96.97
2022-09-18T09:30:00.275Z,97.53
2022-09-18T09:31:00.252Z,98.05
2022-09-18T09:32:00.388Z,98.05
2022-09-18T09:33:00.210Z,98.05
2022-09-18T09:34:00.203Z,97.94
2022-09-18T09:35:00.195Z,98.09
2022-09-18T09:36:00.159Z,97.99
2022-09-18T09:37:00.134Z,97.89
2022-09-18T09:38:00.206Z,98.09
2022-09-18T09:39:00.146Z,98.19
2022-09-18T09:40:00.180Z,98.91
2022-09-18T09:41:00.052Z,98.70
2022-09-18T09:42:00.035Z,98.80
2022-09-18T09:43:00.011Z,98.91
2022-09-18T09:43:59.995Z,98.34
2022-09-18T09:44:59.991Z,98.75
2022-09-18T09:45:59.951Z,98.75
2022-09-18T09:46:59.982Z,98.85
2022-09-18T09:47:59.907Z,99.26
2022-09-18T09:48:59.900Z,99.66
2022-09-18T09:49:59.874Z,99.87
2022-09-18T09:50:59.869Z,99.30
2022-09-18T09:51:59.823Z,99.56
2022-09-18T09:52:59.804Z,99.46
2022-09-18T09:53:59.963Z,99.99
2022-09-18T09:54:59.781Z,99.99
2022-09-18T09:55:59.745Z,99.99
2022-09-18T09:56:59.721Z,99.99
2022-09-18T09:57:59.717Z,99.87
2022-09-18T09:58:59.677Z,99.97
2022-09-18T09:59:59.671Z,99.99
2022-09-18T10:00:59.707Z,99.99
2022-09-18T10:01:59.698Z,99.99
2022-09-18T10:02:59.601Z,99.99
2022-09-18T10:03:59.594Z,99.99
2022-09-18T10:04:59.559Z,99.99
2022-09-18T10:05:59.540Z,99.99
2022-09-18T10:06:59.537Z,99.99
2022-09-18T10:07:59.520Z,99.99
2022-09-18T10:08:59.593Z,99.99
2022-09-18T10:09:59.571Z,99.99
2022-09-18T10:10:59.585Z,99.99
2022-09-18T10:11:59.543Z,99.99
2022-09-18T10:12:59.795Z,99.99
2022-09-18T10:13:59.369Z,99.99
2022-09-18T10:14:59.402Z,99.99
2022-09-18T10:15:59.397Z,99.99
2022-09-18T10:16:59.312Z,99.99
2022-09-18T10:17:59.300Z,99.99
2022-09-18T10:18:59.289Z,99.99
2022-09-18T10:19:59.248Z,99.99
2022-09-18T10:20:59.239Z,99.99
2022-09-18T10:21:59.238Z,99.99
2022-09-18T10:22:59.207Z,99.99
2022-09-18T10:23:59.185Z,99.99
2022-09-18T10:24:59.148Z,99.67
2022-09-18T10:25:59.223Z,99.77
2022-09-18T10:26:59.127Z,99.88
2022-09-18T10:27:59.098Z,99.57
2022-09-18T10:28:59.066Z,99.37
2022-09-18T10:29:59.071Z,99.83
2022-09-18T10:30:59.038Z,99.83
2022-09-18T10:31:59.067Z,98.35
2022-09-18T10:32:59.008Z,98.66
2022-09-18T10:33:58.963Z,98.66
2022-09-18T10:34:58.975Z,98.14
2022-09-18T10:35:58.931Z,98.35
2022-09-18T10:36:58.902Z,98.66
2022-09-18T10:37:58.881Z,98.35
2022-09-18T10:38:58.864Z,98.61
2022-09-18T10:39:58.893Z,98.20
2022-09-18T10:40:58.842Z,97.94
2022-09-18T10:41:58.894Z,96.31
2022-09-18T10:42:58.782Z,97.13
2022-09-18T10:43:58.758Z,97.13
2022-09-18T10:45:01.633Z,96.31
2022-09-18T10:45:58.751Z,96.42
2022-09-18T10:46:58.766Z,96.62
2022-09-18T10:47:58.680Z,96.52
2022-09-18T10:48:58.666Z,95.70
2022-09-18T10:49:58.642Z,95.61
2022-09-18T10:50:58.622Z,95.91
2022-09-18T10:51:58.617Z,95.56
2022-09-18T10:52:58.579Z,95.56
2022-09-18T10:53:58.559Z,94.74
2022-09-18T10:54:58.535Z,95.56
2022-09-18T10:55:58.539Z,96.02
2022-09-18T10:56:58.497Z,95.01
2022-09-18T10:57:58.580Z,94.24
2022-09-18T10:58:58.453Z,93.89
2022-09-18T10:59:58.457Z,93.99
2022-09-18T11:00:58.490Z,93.68
2022-09-18T11:01:58.479Z,93.38
2022-09-18T11:02:58.376Z,94.09
2022-09-18T11:03:58.395Z,94.76
2022-09-18T11:04:58.335Z,95.37
2022-09-18T11:05:58.324Z,94.86
2022-09-18T11:06:58.298Z,93.28
2022-09-18T11:07:58.296Z,94.35
2022-09-18T11:08:58.282Z,94.15
2022-09-18T11:09:58.235Z,93.33
2022-09-18T11:10:58.226Z,93.95
2022-09-18T11:11:58.196Z,93.74
2022-09-18T11:12:58.173Z,93.74
2022-09-18T11:13:58.277Z,93.95
2022-09-18T11:14:58.137Z,92.72
2022-09-18T11:15:58.184Z,92.12
2022-09-18T11:16:58.096Z,92.63
2022-09-18T11:17:58.076Z,92.22
2022-09-18T11:18:58.075Z,92.57
2022-09-18T11:19:58.058Z,92.32
2022-09-18T11:20:58.014Z,92.16
2022-09-18T11:21:58.006Z,92.47
2022-09-18T11:22:57.978Z,91.96
2022-09-18T11:23:57.966Z,92.36
2022-09-18T11:24:57.959Z,92.57
2022-09-18T11:25:57.919Z,92.32
2022-09-18T11:26:57.899Z,91.30
2022-09-18T11:27:57.874Z,92.36
2022-09-18T11:28:57.862Z,91.55
2022-09-18T11:29:57.930Z,91.71
2022-09-18T11:30:57.845Z,91.71
2022-09-18T11:31:57.865Z,91.30
2022-09-18T11:32:57.791Z,92.02
2022-09-18T11:33:57.765Z,91.91
2022-09-18T11:34:57.747Z,91.36
2022-09-18T11:35:57.721Z,91.26
2022-09-18T11:36:57.722Z,91.97
2022-09-18T11:37:57.679Z,91.77
2022-09-18T11:38:57.663Z,91.26
2022-09-18T11:39:57.680Z,91.67
2022-09-18T11:40:57.619Z,91.47
2022-09-18T11:41:57.614Z,90.96
2022-09-18T11:42:57.586Z,91.56
2022-09-18T11:43:57.561Z,91.56
2022-09-18T11:44:57.548Z,91.36
2022-09-18T11:45:57.631Z,90.96
2022-09-18T11:46:57.590Z,91.06
2022-09-18T11:47:57.476Z,91.56
2022-09-18T11:49:01.282Z,91.47
2022-09-18T11:49:57.444Z,90.39
2022-09-18T11:50:57.442Z,91.00
2022-09-18T11:51:57.400Z,91.05
2022-09-18T11:52:57.415Z,90.94
2022-09-18T11:53:57.368Z,91.25
2022-09-18T11:54:57.348Z,91.35
2022-09-18T11:55:57.325Z,91.60
2022-09-18T11:56:57.302Z,91.80
2022-09-18T11:57:57.286Z,92.41
2022-09-18T11:58:57.281Z,94.34
2022-09-18T11:59:57.242Z,93.83
2022-09-18T12:00:59.867Z,96.11
2022-09-18T12:01:57.363Z,95.86
2022-09-18T12:02:57.418Z,96.01
2022-09-18T12:03:57.196Z,96.31
2022-09-18T12:04:57.162Z,96.72
2022-09-18T12:05:57.125Z,93.96
2022-09-18T12:06:57.104Z,94.37
2022-09-18T12:07:55.723Z,95.79
2022-09-18T12:08:55.726Z,95.69
2022-09-18T12:09:55.687Z,95.33
2022-09-18T12:10:55.727Z,94.72
2022-09-18T12:11:55.977Z,93.64
2022-09-18T12:12:55.668Z,94.05
2022-09-18T12:13:56.299Z,95.37
2022-09-18T12:14:56.141Z,96.23
2022-09-18T12:15:56.001Z,96.34
2022-09-18T12:16:59.008Z,96.54
2022-09-18T12:17:55.738Z,96.95
2022-09-18T12:18:56.110Z,97.77
2022-09-18T12:19:55.603Z,97.36
2022-09-18T12:20:55.674Z,98.18
2022-09-18T12:21:55.503Z,98.07
2022-09-18T12:22:55.623Z,98.27
2022-09-18T12:23:55.433Z,98.58
2022-09-18T12:24:55.363Z,98.18
2022-09-18T12:25:55.431Z,98.48
2022-09-18T12:26:55.457Z,98.89
2022-09-18T12:27:55.444Z,98.48
2022-09-18T12:28:55.469Z,98.68
2022-09-18T12:29:55.423Z,98.58
2022-09-18T12:30:56.005Z,99.09
2022-09-18T12:31:55.648Z,98.79
2022-09-18T12:32:55.464Z,98.74
2022-09-18T12:33:55.382Z,98.84
2022-09-18T12:34:55.304Z,98.48
2022-09-18T12:35:55.362Z,98.64
2022-09-18T12:36:55.412Z,99.25
2022-09-18T12:37:55.080Z,98.33
2022-09-18T12:38:56.389Z,99.04
2022-09-18T12:39:55.732Z,98.84
2022-09-18T12:40:55.686Z,99.20
2022-09-18T12:41:55.680Z,99.41
2022-09-18T12:42:55.643Z,99.10
2022-09-18T12:43:55.644Z,98.79
2022-09-18T12:44:55.608Z,98.69
2022-09-18T12:45:55.612Z,98.69
2022-09-18T12:46:59.875Z,98.90
2022-09-18T12:47:55.534Z,98.69
2022-09-18T12:48:55.518Z,98.43
2022-09-18T12:49:55.605Z,98.33
2022-09-18T12:50:55.489Z,98.94
2022-09-18T12:51:55.454Z,98.49
2022-09-18T12:53:06.657Z,99.30